METAR de aeropuertos de Murcia y cercanos

 

LEAL - Alicante
Actualización: 22/09/2017 13:30
Few Clouds
Few Clouds
 Viento del E
Viento: E 28 km/h
Temperatura: 25°C
Rocío: 19°C
Humedad: 69%
Barómetro: 1019 hPa
Nubosidad: Few Clouds
Visibilidad: 10 km
Cloud details: Few Clouds 762 m
2017/09/22 11:30 LEAL 221130Z 09015KT 9999 FEW025 25/19 Q1019 NOSIG
LEAB - Albacete
Actualización: 22/09/2017 13:00
Despejado
Despejado
 Viento del SE
Viento: SE 15 km/h
Temperatura: 23°C
Rocío: 11°C
Humedad: 47%
Barómetro: 1021 hPa
Resumen: Despejado
Visibilidad: greater than 10 km
2017/09/22 11:00 LEAB 221100Z 14008KT 100V190 CAVOK 23/11 Q1021 NOSIG
LEAM - Almería
Actualización: 22/09/2017 13:30
Few Clouds
Few Clouds
 Viento del E
Viento: E 24 km/h
Temperatura: 29°C
Heat Index: 29°C
Rocío: 17°C
Humedad: 48%
Barómetro: 1017 hPa
Nubosidad: Few Clouds
Visibilidad: 10 km
Cloud details: Few Clouds 762 m
2017/09/22 11:30 LEAM 221130Z 09013KT 050V140 9999 FEW025 29/17 Q1017
 
LERI - Murcia/Alcantarilla
Actualización: 22/09/2017 13:00
Partly Cloudy
Partly Cloudy
 Viento del NE
Viento: NE 15 km/h
Temperatura: 25°C
Rocío: 17°C
Humedad: 61%
Barómetro: 1019 hPa
Nubosidad: Partly Cloudy
Visibilidad: 10 km
Cloud details: Few Clouds 762 m
Partly Cloudy 1158 m
2017/09/22 11:00 LERI 221100Z 05008KT 010V100 9999 FEW025 SCT038 25/17 Q1019 NOSIG
LELC - Murcia/San Javier
Actualización: 22/09/2017 13:00
Partly Cloudy
Partly Cloudy
 Viento del ENE
Viento: ENE 20 km/h
Temperatura: 26°C
Rocío: 18°C
Humedad: 61%
Barómetro: 1019 hPa
Nubosidad: Partly Cloudy
Visibilidad: 10 km
Cloud details: Partly Cloudy 671 m
2017/09/22 11:00 LELC 221100Z 06011KT 030V090 9999 SCT022 26/18 Q1019 NOSIG

La estación de MeteoMurcia.com, publica sus datos en los siguientes proyectos:

Meteoclimatic www.awekas.at

W3Counter
Web Analytics